sensor_id;sensor_type;location;lat;lon;timestamp;pressure;altitude;pressure_sealevel;temperature;humidity
6218;BME280;3142;48.206;11.550;2024-01-07T00:00:16;94912.41;;;4.11;82.35
6218;BME280;3142;48.206;11.550;2024-01-07T00:02:42;94916.91;;;4.09;82.09
6218;BME280;3142;48.206;11.550;2024-01-07T00:05:09;94918.53;;;4.10;82.44
6218;BME280;3142;48.206;11.550;2024-01-07T00:07:35;94913.34;;;4.10;82.92
6218;BME280;3142;48.206;11.550;2024-01-07T00:10:02;94921.22;;;4.02;81.53
6218;BME280;3142;48.206;11.550;2024-01-07T00:12:28;94920.41;;;4.02;82.76
6218;BME280;3142;48.206;11.550;2024-01-07T00:14:55;94913.28;;;4.04;82.46
6218;BME280;3142;48.206;11.550;2024-01-07T00:17:23;94916.50;;;4.06;82.42
6218;BME280;3142;48.206;11.550;2024-01-07T00:19:49;94915.94;;;4.10;82.69
6218;BME280;3142;48.206;11.550;2024-01-07T00:22:16;94919.06;;;4.06;82.29
6218;BME280;3142;48.206;11.550;2024-01-07T00:24:42;94913.72;;;4.07;82.81
6218;BME280;3142;48.206;11.550;2024-01-07T00:27:09;94909.09;;;4.03;82.69
6218;BME280;3142;48.206;11.550;2024-01-07T00:29:35;94912.22;;;3.98;82.78
6218;BME280;3142;48.206;11.550;2024-01-07T00:32:02;94920.41;;;4.02;83.12
6218;BME280;3142;48.206;11.550;2024-01-07T00:34:30;94915.44;;;4.00;83.03
6218;BME280;3142;48.206;11.550;2024-01-07T00:36:56;94913.47;;;4.02;82.84
6218;BME280;3142;48.206;11.550;2024-01-07T00:39:24;94915.69;;;4.05;82.90
6218;BME280;3142;48.206;11.550;2024-01-07T00:41:50;94917.84;;;4.02;83.05
6218;BME280;3142;48.206;11.550;2024-01-07T00:44:17;94915.69;;;4.05;82.49
6218;BME280;3142;48.206;11.550;2024-01-07T00:46:43;94917.03;;;4.01;83.24
6218;BME280;3142;48.206;11.550;2024-01-07T00:49:09;94915.88;;;4.04;82.74
6218;BME280;3142;48.206;11.550;2024-01-07T00:51:37;94913.91;;;4.06;82.67
6218;BME280;3142;48.206;11.550;2024-01-07T00:54:04;94914.88;;;4.05;82.22
6218;BME280;3142;48.206;11.550;2024-01-07T00:56:30;94911.69;;;4.03;83.05
6218;BME280;3142;48.206;11.550;2024-01-07T00:58:56;94915.88;;;4.04;82.94
6218;BME280;3142;48.206;11.550;2024-01-07T01:01:23;94916.75;;;3.96;82.46
6218;BME280;3142;48.206;11.550;2024-01-07T01:03:49;94914.16;;;3.96;82.72
6218;BME280;3142;48.206;11.550;2024-01-07T01:06:16;94915.88;;;3.89;83.75
6218;BME280;3142;48.206;11.550;2024-01-07T01:08:43;94921.13;;;3.96;83.06
6218;BME280;3142;48.206;11.550;2024-01-07T01:11:10;94926.75;;;3.99;83.06
6218;BME280;3142;48.206;11.550;2024-01-07T01:13:36;94919.19;;;3.98;83.31
6218;BME280;3142;48.206;11.550;2024-01-07T01:16:03;94920.31;;;3.95;82.69
6218;BME280;3142;48.206;11.550;2024-01-07T01:18:30;94917.91;;;3.94;83.19
6218;BME280;3142;48.206;11.550;2024-01-07T01:20:56;94920.31;;;3.95;83.35
6218;BME280;3142;48.206;11.550;2024-01-07T01:23:23;94920.50;;;3.94;83.42
6218;BME280;3142;48.206;11.550;2024-01-07T01:25:50;94926.75;;;3.99;82.52
6218;BME280;3142;48.206;11.550;2024-01-07T01:28:17;94924.34;;;3.98;82.69
6218;BME280;3142;48.206;11.550;2024-01-07T01:30:43;94928.06;;;3.95;83.51
6218;BME280;3142;48.206;11.550;2024-01-07T01:33:10;94919.34;;;3.96;82.70
6218;BME280;3142;48.206;11.550;2024-01-07T01:35:36;94921.13;;;3.96;83.03
6218;BME280;3142;48.206;11.550;2024-01-07T01:38:03;94920.13;;;3.97;83.41
6218;BME280;3142;48.206;11.550;2024-01-07T01:40:29;94921.13;;;3.96;83.04
6218;BME280;3142;48.206;11.550;2024-01-07T01:42:57;94921.47;;;3.93;82.43
6218;BME280;3142;48.206;11.550;2024-01-07T01:45:24;94919.88;;;3.92;82.97
6218;BME280;3142;48.206;11.550;2024-01-07T01:47:50;94919.69;;;3.93;83.31
6218;BME280;3142;48.206;11.550;2024-01-07T01:50:17;94919.44;;;3.88;82.78
6218;BME280;3142;48.206;11.550;2024-01-07T01:52:44;94915.06;;;3.89;83.30
6218;BME280;3142;48.206;11.550;2024-01-07T01:55:11;94913.91;;;3.91;83.22
6218;BME280;3142;48.206;11.550;2024-01-07T01:57:39;94917.66;;;3.89;82.65
6218;BME280;3142;48.206;11.550;2024-01-07T02:00:08;94908.00;;;3.82;83.33
6218;BME280;3142;48.206;11.550;2024-01-07T02:02:35;94906.06;;;3.84;82.79
6218;BME280;3142;48.206;11.550;2024-01-07T02:05:02;94911.56;;;3.81;82.85
6218;BME280;3142;48.206;11.550;2024-01-07T02:07:29;94914.63;;;3.85;83.30
6218;BME280;3142;48.206;11.550;2024-01-07T02:09:56;94918.81;;;3.86;83.04
6218;BME280;3142;48.206;11.550;2024-01-07T02:12:23;94923.69;;;3.81;83.65
6218;BME280;3142;48.206;11.550;2024-01-07T02:14:49;94916.28;;;3.78;83.49
6218;BME280;3142;48.206;11.550;2024-01-07T02:17:18;94907.91;;;3.76;83.44
6218;BME280;3142;48.206;11.550;2024-01-07T02:19:45;94916.75;;;3.81;83.31
6218;BME280;3142;48.206;11.550;2024-01-07T02:22:11;94905.94;;;3.78;84.09
6218;BME280;3142;48.206;11.550;2024-01-07T02:24:39;94906.03;;;3.70;84.16
6218;BME280;3142;48.206;11.550;2024-01-07T02:27:05;94903.97;;;3.65;83.32
6218;BME280;3142;48.206;11.550;2024-01-07T02:29:32;94912.47;;;3.74;84.21
6218;BME280;3142;48.206;11.550;2024-01-07T02:31:58;94906.75;;;3.78;84.19
6218;BME280;3142;48.206;11.550;2024-01-07T02:34:25;94912.19;;;3.83;83.25
6218;BME280;3142;48.206;11.550;2024-01-07T02:36:51;94914.78;;;3.83;82.96
6218;BME280;3142;48.206;11.550;2024-01-07T02:39:18;94911.69;;;3.88;83.56
6218;BME280;3142;48.206;11.550;2024-01-07T02:41:45;94914.44;;;3.86;83.64
6218;BME280;3142;48.206;11.550;2024-01-07T02:44:12;94912.19;;;3.83;83.57
6218;BME280;3142;48.206;11.550;2024-01-07T02:46:39;94915.06;;;3.89;83.16
6218;BME280;3142;48.206;11.550;2024-01-07T02:49:05;94908.47;;;3.86;83.68
6218;BME280;3142;48.206;11.550;2024-01-07T02:51:32;94915.06;;;3.89;84.22
6218;BME280;3142;48.206;11.550;2024-01-07T02:53:58;94912.03;;;3.85;82.93
6218;BME280;3142;48.206;11.550;2024-01-07T02:56:24;94913.28;;;3.89;84.05
6218;BME280;3142;48.206;11.550;2024-01-07T02:58:52;94909.97;;;3.80;83.27
6218;BME280;3142;48.206;11.550;2024-01-07T03:01:21;94907.91;;;3.76;83.54
6218;BME280;3142;48.206;11.550;2024-01-07T03:03:48;94906.13;;;3.76;83.65
6218;BME280;3142;48.206;11.550;2024-01-07T03:06:14;94908.19;;;3.81;83.33
6218;BME280;3142;48.206;11.550;2024-01-07T03:08:41;94912.38;;;3.82;84.02
6218;BME280;3142;48.206;11.550;2024-01-07T03:11:08;94911.06;;;3.86;83.28
6218;BME280;3142;48.206;11.550;2024-01-07T03:13:34;94907.19;;;3.82;83.33
6218;BME280;3142;48.206;11.550;2024-01-07T03:16:02;94917.38;;;3.83;83.97
6218;BME280;3142;48.206;11.550;2024-01-07T03:18:29;94912.03;;;3.85;83.25
6218;BME280;3142;48.206;11.550;2024-01-07T03:20:55;94907.66;;;3.85;83.56
6218;BME280;3142;48.206;11.550;2024-01-07T03:23:22;94914.44;;;3.86;84.21
6218;BME280;3142;48.206;11.550;2024-01-07T03:25:49;94917.47;;;3.90;83.74
6218;BME280;3142;48.206;11.550;2024-01-07T03:28:15;94911.50;;;3.90;83.34
6218;BME280;3142;48.206;11.550;2024-01-07T03:30:42;94910.69;;;3.89;83.61
6218;BME280;3142;48.206;11.550;2024-01-07T03:33:10;94908.53;;;3.93;82.99
6218;BME280;3142;48.206;11.550;2024-01-07T03:35:36;94910.34;;;3.92;83.06
6218;BME280;3142;48.206;11.550;2024-01-07T03:38:03;94906.94;;;3.92;83.66
6218;BME280;3142;48.206;11.550;2024-01-07T03:40:29;94916.22;;;3.86;82.79
6218;BME280;3142;48.206;11.550;2024-01-07T03:42:56;94913.09;;;3.91;83.33
6218;BME280;3142;48.206;11.550;2024-01-07T03:45:22;94912.38;;;3.97;83.66
6218;BME280;3142;48.206;11.550;2024-01-07T03:47:49;94916.75;;;3.96;83.36
6218;BME280;3142;48.206;11.550;2024-01-07T03:50:16;94913.34;;;3.96;83.16
6218;BME280;3142;48.206;11.550;2024-01-07T03:52:43;94910.75;;;3.96;82.89
6218;BME280;3142;48.206;11.550;2024-01-07T03:55:10;94914.34;;;3.95;83.50
6218;BME280;3142;48.206;11.550;2024-01-07T03:57:36;94917.91;;;3.94;84.18
6218;BME280;3142;48.206;11.550;2024-01-07T04:00:04;94921.66;;;3.91;83.01
6218;BME280;3142;48.206;11.550;2024-01-07T04:02:30;94923.88;;;3.94;84.05
6218;BME280;3142;48.206;11.550;2024-01-07T04:04:57;94929.34;;;3.84;83.26
6218;BME280;3142;48.206;11.550;2024-01-07T04:07:24;94921.72;;;3.83;83.99
6218;BME280;3142;48.206;11.550;2024-01-07T04:09:51;94923.38;;;3.84;83.87
6218;BME280;3142;48.206;11.550;2024-01-07T04:12:17;94931.13;;;3.84;84.18
6218;BME280;3142;48.206;11.550;2024-01-07T04:14:44;94925.59;;;3.87;84.18
6218;BME280;3142;48.206;11.550;2024-01-07T04:17:10;94918.81;;;3.86;83.92
6218;BME280;3142;48.206;11.550;2024-01-07T04:19:37;94933.88;;;3.82;84.66
6218;BME280;3142;48.206;11.550;2024-01-07T04:22:04;94928.88;;;3.81;83.86
6218;BME280;3142;48.206;11.550;2024-01-07T04:24:32;94932.09;;;3.83;84.69
6218;BME280;3142;48.206;11.550;2024-01-07T04:26:58;94924.69;;;3.80;84.61
6218;BME280;3142;48.206;11.550;2024-01-07T04:29:24;94932.88;;;3.83;84.25
6218;BME280;3142;48.206;11.550;2024-01-07T04:31:51;94934.78;;;3.90;84.42
6218;BME280;3142;48.206;11.550;2024-01-07T04:34:17;94943.53;;;3.89;84.03
6218;BME280;3142;48.206;11.550;2024-01-07T04:36:44;94940.31;;;3.86;84.50
6218;BME280;3142;48.206;11.550;2024-01-07T04:39:10;94951.34;;;3.80;84.70
6218;BME280;3142;48.206;11.550;2024-01-07T04:41:38;94946.72;;;3.76;84.35
6218;BME280;3142;48.206;11.550;2024-01-07T04:44:04;94951.63;;;3.71;84.20
6218;BME280;3142;48.206;11.550;2024-01-07T04:46:33;94950.28;;;3.75;84.49
6218;BME280;3142;48.206;11.550;2024-01-07T04:49:00;94949.94;;;3.78;85.15
6218;BME280;3142;48.206;11.550;2024-01-07T04:51:26;94957.88;;;3.76;84.21
6218;BME280;3142;48.206;11.550;2024-01-07T04:53:53;94953.31;;;3.78;84.76
6218;BME280;3142;48.206;11.550;2024-01-07T04:56:19;94957.16;;;3.82;84.78
6218;BME280;3142;48.206;11.550;2024-01-07T04:58:47;94958.44;;;3.86;84.79
6218;BME280;3142;48.206;11.550;2024-01-07T05:01:14;94968.94;;;3.85;84.75
6218;BME280;3142;48.206;11.550;2024-01-07T05:03:40;94968.03;;;3.78;84.86
6218;BME280;3142;48.206;11.550;2024-01-07T05:06:08;94962.84;;;3.78;84.78
6218;BME280;3142;48.206;11.550;2024-01-07T05:08:34;94975.91;;;3.84;84.73
6218;BME280;3142;48.206;11.550;2024-01-07T05:11:01;94970.72;;;3.84;84.15
6218;BME280;3142;48.206;11.550;2024-01-07T05:13:27;94977.84;;;3.82;83.54
6218;BME280;3142;48.206;11.550;2024-01-07T05:15:55;94982.41;;;3.80;84.59
6218;BME280;3142;48.206;11.550;2024-01-07T05:18:21;94983.72;;;3.76;84.54
6218;BME280;3142;48.206;11.550;2024-01-07T05:20:48;94980.16;;;3.77;84.77
6218;BME280;3142;48.206;11.550;2024-01-07T05:23:15;94984.72;;;3.75;84.32
6218;BME280;3142;48.206;11.550;2024-01-07T05:25:42;94988.28;;;3.74;84.49
6218;BME280;3142;48.206;11.550;2024-01-07T05:28:09;94983.72;;;3.76;84.43
6218;BME280;3142;48.206;11.550;2024-01-07T05:30:36;94981.16;;;3.76;84.80
6218;BME280;3142;48.206;11.550;2024-01-07T05:33:04;94983.91;;;3.75;84.30
6218;BME280;3142;48.206;11.550;2024-01-07T05:35:30;94983.72;;;3.76;84.91
6218;BME280;3142;48.206;11.550;2024-01-07T05:37:57;94984.91;;;3.74;84.84
6218;BME280;3142;48.206;11.550;2024-01-07T05:40:24;94983.28;;;3.73;85.06
6218;BME280;3142;48.206;11.550;2024-01-07T05:42:50;94986.69;;;3.73;84.84
6218;BME280;3142;48.206;11.550;2024-01-07T05:45:17;94986.56;;;3.67;84.43
6218;BME280;3142;48.206;11.550;2024-01-07T05:47:43;94987.28;;;3.61;84.74
6218;BME280;3142;48.206;11.550;2024-01-07T05:50:11;94988.88;;;3.62;85.22
6218;BME280;3142;48.206;11.550;2024-01-07T05:52:40;94987.97;;;3.69;85.04
6218;BME280;3142;48.206;11.550;2024-01-07T05:55:07;94996.09;;;3.66;84.83
6218;BME280;3142;48.206;11.550;2024-01-07T05:57:34;94995.75;;;3.69;84.96
6218;BME280;3142;48.206;11.550;2024-01-07T06:00:00;95004.66;;;3.67;84.17
6218;BME280;3142;48.206;11.550;2024-01-07T06:02:27;94996.72;;;3.68;85.28
6218;BME280;3142;48.206;11.550;2024-01-07T06:04:53;95004.59;;;3.75;85.17
6218;BME280;3142;48.206;11.550;2024-01-07T06:07:21;95008.25;;;3.80;84.81
6218;BME280;3142;48.206;11.550;2024-01-07T06:09:48;94995.44;;;3.87;85.21
6218;BME280;3142;48.206;11.550;2024-01-07T06:12:14;95002.31;;;3.95;85.53
6218;BME280;3142;48.206;11.550;2024-01-07T06:14:40;95008.09;;;3.97;85.27
6218;BME280;3142;48.206;11.550;2024-01-07T06:17:07;95009.09;;;3.96;84.16
6218;BME280;3142;48.206;11.550;2024-01-07T06:19:33;95014.19;;;3.89;84.70
6218;BME280;3142;48.206;11.550;2024-01-07T06:22:00;95017.22;;;3.93;85.37
6218;BME280;3142;48.206;11.550;2024-01-07T06:24:27;95019.34;;;3.89;84.51
6218;BME280;3142;48.206;11.550;2024-01-07T06:26:54;95025.06;;;3.84;84.58
6218;BME280;3142;48.206;11.550;2024-01-07T06:29:20;95023.28;;;3.85;84.66
6218;BME280;3142;48.206;11.550;2024-01-07T06:31:47;95017.44;;;3.83;84.70
6218;BME280;3142;48.206;11.550;2024-01-07T06:34:13;95030.28;;;3.76;84.80
6218;BME280;3142;48.206;11.550;2024-01-07T06:36:40;95028.16;;;3.80;84.05
6218;BME280;3142;48.206;11.550;2024-01-07T06:39:07;95025.38;;;3.81;84.30
6218;BME280;3142;48.206;11.550;2024-01-07T06:41:35;95031.63;;;3.72;84.35
6218;BME280;3142;48.206;11.550;2024-01-07T06:44:01;95026.91;;;3.76;84.64
6218;BME280;3142;48.206;11.550;2024-01-07T06:46:28;95033.16;;;3.81;84.98
6218;BME280;3142;48.206;11.550;2024-01-07T06:48:54;95037.53;;;3.81;83.83
6218;BME280;3142;48.206;11.550;2024-01-07T06:51:21;95042.41;;;3.76;85.49
6218;BME280;3142;48.206;11.550;2024-01-07T06:53:47;95044.13;;;3.83;85.27
6218;BME280;3142;48.206;11.550;2024-01-07T06:56:15;95048.84;;;3.80;84.25
6218;BME280;3142;48.206;11.550;2024-01-07T06:58:43;95050.28;;;3.82;84.77
6218;BME280;3142;48.206;11.550;2024-01-07T07:01:10;95053.34;;;3.86;84.77
6218;BME280;3142;48.206;11.550;2024-01-07T07:03:36;95052.72;;;3.84;83.83
6218;BME280;3142;48.206;11.550;2024-01-07T07:06:03;95055.97;;;3.78;84.31
6218;BME280;3142;48.206;11.550;2024-01-07T07:08:30;95055.34;;;3.76;84.70
6218;BME280;3142;48.206;11.550;2024-01-07T07:10:56;95061.78;;;3.80;85.06
6218;BME280;3142;48.206;11.550;2024-01-07T07:13:23;95062.94;;;3.77;84.42
6218;BME280;3142;48.206;11.550;2024-01-07T07:15:50;95061.44;;;3.83;84.23
6218;BME280;3142;48.206;11.550;2024-01-07T07:18:17;95060.19;;;3.79;84.92
6218;BME280;3142;48.206;11.550;2024-01-07T07:20:43;95070.66;;;3.85;84.08
6218;BME280;3142;48.206;11.550;2024-01-07T07:23:10;95071.44;;;3.86;84.04
6218;BME280;3142;48.206;11.550;2024-01-07T07:25:36;95078.06;;;3.89;84.01
6218;BME280;3142;48.206;11.550;2024-01-07T07:28:03;95077.53;;;3.93;83.67
6218;BME280;3142;48.206;11.550;2024-01-07T07:30:30;95081.28;;;3.91;83.82
6218;BME280;3142;48.206;11.550;2024-01-07T07:32:57;95086.81;;;3.88;84.13
6218;BME280;3142;48.206;11.550;2024-01-07T07:35:24;95084.44;;;3.78;83.82
6218;BME280;3142;48.206;11.550;2024-01-07T07:37:50;95091.53;;;3.84;84.02
6218;BME280;3142;48.206;11.550;2024-01-07T07:40:17;95100.19;;;3.91;83.82
6218;BME280;3142;48.206;11.550;2024-01-07T07:42:44;95094.47;;;3.96;84.23
6218;BME280;3142;48.206;11.550;2024-01-07T07:45:10;95096.34;;;3.87;83.38
6218;BME280;3142;48.206;11.550;2024-01-07T07:47:37;95095.41;;;3.80;83.80
6218;BME280;3142;48.206;11.550;2024-01-07T07:50:07;95106.75;;;3.79;83.88
6218;BME280;3142;48.206;11.550;2024-01-07T07:52:35;95111.75;;;3.80;84.00
6218;BME280;3142;48.206;11.550;2024-01-07T07:55:01;95100.88;;;3.85;84.56
6218;BME280;3142;48.206;11.550;2024-01-07T07:57:28;95109.09;;;3.89;83.62
6218;BME280;3142;48.206;11.550;2024-01-07T07:59:54;95111.38;;;3.83;84.04
6218;BME280;3142;48.206;11.550;2024-01-07T08:02:21;95107.38;;;3.81;84.68
6218;BME280;3142;48.206;11.550;2024-01-07T08:04:48;95113.31;;;3.90;84.92
6218;BME280;3142;48.206;11.550;2024-01-07T08:07:15;95115.44;;;3.86;84.19
6218;BME280;3142;48.206;11.550;2024-01-07T08:09:42;95117.09;;;3.79;84.15
6218;BME280;3142;48.206;11.550;2024-01-07T08:12:08;95116.81;;;3.74;85.51
6218;BME280;3142;48.206;11.550;2024-01-07T08:14:37;95114.69;;;3.77;84.69
6218;BME280;3142;48.206;11.550;2024-01-07T08:17:06;95133.75;;;3.76;85.00
6218;BME280;3142;48.206;11.550;2024-01-07T08:19:32;95128.69;;;3.83;84.45
6218;BME280;3142;48.206;11.550;2024-01-07T08:21:59;95130.66;;;3.81;84.56
6218;BME280;3142;48.206;11.550;2024-01-07T08:24:26;95132.78;;;3.77;84.50
6218;BME280;3142;48.206;11.550;2024-01-07T08:26:52;95129.50;;;3.83;84.02
6218;BME280;3142;48.206;11.550;2024-01-07T08:29:19;95134.16;;;3.88;83.15
6218;BME280;3142;48.206;11.550;2024-01-07T08:31:46;95138.91;;;3.84;84.28
6218;BME280;3142;48.206;11.550;2024-01-07T08:34:12;95145.00;;;3.83;83.82
6218;BME280;3142;48.206;11.550;2024-01-07T08:36:40;95141.88;;;3.73;84.01
6218;BME280;3142;48.206;11.550;2024-01-07T08:39:06;95145.25;;;3.74;83.71
6218;BME280;3142;48.206;11.550;2024-01-07T08:41:35;95144.75;;;3.78;83.83
6218;BME280;3142;48.206;11.550;2024-01-07T08:44:02;95146.69;;;3.76;83.94
6218;BME280;3142;48.206;11.550;2024-01-07T08:46:28;95152.31;;;3.80;83.97
6218;BME280;3142;48.206;11.550;2024-01-07T08:48:55;95151.72;;;3.70;83.46
6218;BME280;3142;48.206;11.550;2024-01-07T08:51:22;95156.44;;;3.66;83.87
6218;BME280;3142;48.206;11.550;2024-01-07T08:53:48;95161.41;;;3.76;84.46
6218;BME280;3142;48.206;11.550;2024-01-07T08:56:15;95168.53;;;3.74;82.85
6218;BME280;3142;48.206;11.550;2024-01-07T08:58:42;95162.84;;;3.78;83.60
6218;BME280;3142;48.206;11.550;2024-01-07T09:01:09;95173.34;;;3.85;83.26
6218;BME280;3142;48.206;11.550;2024-01-07T09:03:35;95175.25;;;3.83;83.47
6218;BME280;3142;48.206;11.550;2024-01-07T09:06:02;95177.03;;;3.82;83.32
6218;BME280;3142;48.206;11.550;2024-01-07T09:08:28;95177.91;;;3.75;82.25
6218;BME280;3142;48.206;11.550;2024-01-07T09:10:55;95187.66;;;3.65;83.92
6218;BME280;3142;48.206;11.550;2024-01-07T09:13:22;95188.34;;;3.59;83.55
6218;BME280;3142;48.206;11.550;2024-01-07T09:15:49;95184.41;;;3.71;83.65
6218;BME280;3142;48.206;11.550;2024-01-07T09:18:16;95186.47;;;3.75;83.49
6218;BME280;3142;48.206;11.550;2024-01-07T09:20:42;95189.16;;;3.82;82.76
6218;BME280;3142;48.206;11.550;2024-01-07T09:23:09;95193.53;;;3.81;83.26
6218;BME280;3142;48.206;11.550;2024-01-07T09:25:35;95191.38;;;3.93;82.91
6218;BME280;3142;48.206;11.550;2024-01-07T09:28:02;95193.72;;;3.80;83.17
6218;BME280;3142;48.206;11.550;2024-01-07T09:30:29;95192.88;;;3.88;83.18
6218;BME280;3142;48.206;11.550;2024-01-07T09:32:57;95201.09;;;3.91;82.52
6218;BME280;3142;48.206;11.550;2024-01-07T09:35:23;95202.41;;;3.87;83.06
6218;BME280;3142;48.206;11.550;2024-01-07T09:37:50;95200.28;;;3.91;82.73
6218;BME280;3142;48.206;11.550;2024-01-07T09:40:17;95203.81;;;3.98;82.41
6218;BME280;3142;48.206;11.550;2024-01-07T09:42:44;95194.56;;;4.03;81.85
6218;BME280;3142;48.206;11.550;2024-01-07T09:45:13;95198.41;;;4.07;81.71
6218;BME280;3142;48.206;11.550;2024-01-07T09:47:39;95202.19;;;3.97;82.52
6218;BME280;3142;48.206;11.550;2024-01-07T09:50:09;95202.19;;;3.97;82.35
6218;BME280;3142;48.206;11.550;2024-01-07T09:52:35;95201.03;;;3.76;82.34
6218;BME280;3142;48.206;11.550;2024-01-07T09:55:06;95201.81;;;3.77;83.32
6218;BME280;3142;48.206;11.550;2024-01-07T09:57:34;95198.88;;;3.80;83.62
6218;BME280;3142;48.206;11.550;2024-01-07T10:00:01;95203.41;;;3.86;81.98
6218;BME280;3142;48.206;11.550;2024-01-07T10:02:30;95205.81;;;3.88;82.21
6218;BME280;3142;48.206;11.550;2024-01-07T10:04:56;95209.69;;;3.83;82.02
6218;BME280;3142;48.206;11.550;2024-01-07T10:07:24;95197.41;;;3.85;82.68
6218;BME280;3142;48.206;11.550;2024-01-07T10:09:51;95207.03;;;4.00;82.45
6218;BME280;3142;48.206;11.550;2024-01-07T10:12:22;95204.72;;;4.05;81.53
6218;BME280;3142;48.206;11.550;2024-01-07T10:14:49;95207.13;;;4.06;81.52
6218;BME280;3142;48.206;11.550;2024-01-07T10:17:15;95201.22;;;3.98;82.31
6218;BME280;3142;48.206;11.550;2024-01-07T10:19:43;95208.47;;;4.02;82.79
6218;BME280;3142;48.206;11.550;2024-01-07T10:22:12;95203.66;;;3.99;81.80
6218;BME280;3142;48.206;11.550;2024-01-07T10:24:41;95203.56;;;4.07;81.56
6218;BME280;3142;48.206;11.550;2024-01-07T10:27:08;95205.72;;;4.04;82.05
6218;BME280;3142;48.206;11.550;2024-01-07T10:29:35;95202.53;;;3.94;81.24
6218;BME280;3142;48.206;11.550;2024-01-07T10:32:03;95216.03;;;3.81;82.67
6218;BME280;3142;48.206;11.550;2024-01-07T10:34:31;95208.44;;;3.79;82.88
6218;BME280;3142;48.206;11.550;2024-01-07T10:36:59;95214.28;;;3.73;82.90
6218;BME280;3142;48.206;11.550;2024-01-07T10:39:25;95207.09;;;3.83;83.23
6218;BME280;3142;48.206;11.550;2024-01-07T10:41:54;95217.63;;;3.82;82.90
6218;BME280;3142;48.206;11.550;2024-01-07T10:44:24;95219.56;;;3.88;83.16
6218;BME280;3142;48.206;11.550;2024-01-07T10:46:53;95219.66;;;3.95;82.64
6218;BME280;3142;48.206;11.550;2024-01-07T10:49:20;95216.97;;;3.88;83.16
6218;BME280;3142;48.206;11.550;2024-01-07T10:52:00;95221.34;;;3.88;83.28
6218;BME280;3142;48.206;11.550;2024-01-07T10:54:28;95215.53;;;3.85;83.21
6218;BME280;3142;48.206;11.550;2024-01-07T10:56:59;95217.59;;;3.90;83.60
6218;BME280;3142;48.206;11.550;2024-01-07T10:59:26;95217.69;;;3.97;83.31
6218;BME280;3142;48.206;11.550;2024-01-07T11:01:53;95212.41;;;3.90;82.61
6218;BME280;3142;48.206;11.550;2024-01-07T11:04:23;95220.28;;;3.97;82.13
6218;BME280;3142;48.206;11.550;2024-01-07T11:06:56;95223.19;;;4.02;81.54
6218;BME280;3142;48.206;11.550;2024-01-07T11:09:38;95225.00;;;3.93;82.78
6218;BME280;3142;48.206;11.550;2024-01-07T11:12:07;95222.50;;;3.85;82.91
6218;BME280;3142;48.206;11.550;2024-01-07T11:14:35;95225.53;;;3.89;81.35
6218;BME280;3142;48.206;11.550;2024-01-07T11:17:01;95217.69;;;3.97;82.23
6218;BME280;3142;48.206;11.550;2024-01-07T11:19:28;95216.69;;;4.06;81.37
6218;BME280;3142;48.206;11.550;2024-01-07T11:22:21;95217.38;;;4.00;82.42
6218;BME280;3142;48.206;11.550;2024-01-07T11:24:49;95221.53;;;4.09;81.27
6218;BME280;3142;48.206;11.550;2024-01-07T11:27:17;95216.88;;;4.04;81.66
6218;BME280;3142;48.206;11.550;2024-01-07T11:29:43;95221.88;;;4.06;80.95
6218;BME280;3142;48.206;11.550;2024-01-07T11:32:12;95218.38;;;3.99;81.47
6218;BME280;3142;48.206;11.550;2024-01-07T11:34:40;95224.38;;;3.91;81.66
6218;BME280;3142;48.206;11.550;2024-01-07T11:37:10;95225.00;;;3.93;81.51
6218;BME280;3142;48.206;11.550;2024-01-07T11:39:36;95234.72;;;3.91;81.92
6218;BME280;3142;48.206;11.550;2024-01-07T11:42:03;95229.81;;;3.73;81.68
6218;BME280;3142;48.206;11.550;2024-01-07T11:44:34;95233.75;;;3.61;80.97
6218;BME280;3142;48.206;11.550;2024-01-07T11:47:02;95235.38;;;3.54;81.24
6218;BME280;3142;48.206;11.550;2024-01-07T11:49:29;95235.09;;;3.49;81.30
6218;BME280;3142;48.206;11.550;2024-01-07T11:51:55;95240.09;;;3.42;81.43
6218;BME280;3142;48.206;11.550;2024-01-07T11:54:22;95236.25;;;3.38;81.65
6218;BME280;3142;48.206;11.550;2024-01-07T11:56:48;95239.81;;;3.37;82.25
6218;BME280;3142;48.206;11.550;2024-01-07T11:59:14;95234.19;;;3.25;81.44
6218;BME280;3142;48.206;11.550;2024-01-07T12:01:42;95236.44;;;3.28;81.13
6218;BME280;3142;48.206;11.550;2024-01-07T12:04:09;95241.47;;;3.22;81.69
6218;BME280;3142;48.206;11.550;2024-01-07T12:06:37;95243.94;;;3.15;81.96
6218;BME280;3142;48.206;11.550;2024-01-07T12:09:04;95248.75;;;3.18;81.99
6218;BME280;3142;48.206;11.550;2024-01-07T12:11:31;95248.75;;;3.18;82.29
6218;BME280;3142;48.206;11.550;2024-01-07T12:13:57;95251.94;;;3.28;81.41
6218;BME280;3142;48.206;11.550;2024-01-07T12:16:25;95250.66;;;3.33;80.73
6218;BME280;3142;48.206;11.550;2024-01-07T12:18:53;95253.53;;;3.38;80.82
6218;BME280;3142;48.206;11.550;2024-01-07T12:21:20;95254.81;;;3.42;81.06
6218;BME280;3142;48.206;11.550;2024-01-07T12:23:48;95257.09;;;3.45;80.59
6218;BME280;3142;48.206;11.550;2024-01-07T12:26:15;95258.19;;;3.42;81.04
6218;BME280;3142;48.206;11.550;2024-01-07T12:28:43;95257.63;;;3.24;79.95
6218;BME280;3142;48.206;11.550;2024-01-07T12:31:10;95262.28;;;3.28;81.34
6218;BME280;3142;48.206;11.550;2024-01-07T12:33:37;95262.78;;;3.32;81.35
6218;BME280;3142;48.206;11.550;2024-01-07T12:36:07;95259.72;;;3.20;81.74
6218;BME280;3142;48.206;11.550;2024-01-07T12:38:36;95262.59;;;3.34;81.85
6218;BME280;3142;48.206;11.550;2024-01-07T12:41:03;95259.97;;;3.42;81.28
6218;BME280;3142;48.206;11.550;2024-01-07T12:43:29;95261.06;;;3.55;81.43
6218;BME280;3142;48.206;11.550;2024-01-07T12:45:56;95257.03;;;3.61;81.03
6218;BME280;3142;48.206;11.550;2024-01-07T12:48:26;95270.13;;;3.51;80.88
6218;BME280;3142;48.206;11.550;2024-01-07T12:50:52;95272.91;;;3.50;80.61
6218;BME280;3142;48.206;11.550;2024-01-07T12:53:20;95272.09;;;3.41;80.60
6218;BME280;3142;48.206;11.550;2024-01-07T12:55:47;95284.06;;;3.42;80.62
6218;BME280;3142;48.206;11.550;2024-01-07T12:58:13;95282.13;;;3.44;80.88
6218;BME280;3142;48.206;11.550;2024-01-07T13:00:40;95282.09;;;3.52;80.92
6218;BME280;3142;48.206;11.550;2024-01-07T13:03:07;95282.91;;;3.53;80.80
6218;BME280;3142;48.206;11.550;2024-01-07T13:05:38;95290.31;;;3.56;81.10
6218;BME280;3142;48.206;11.550;2024-01-07T13:08:06;95290.00;;;3.59;80.28
6218;BME280;3142;48.206;11.550;2024-01-07T13:10:34;95288.91;;;3.45;80.20
6218;BME280;3142;48.206;11.550;2024-01-07T13:13:00;95286.84;;;3.33;80.69
6218;BME280;3142;48.206;11.550;2024-01-07T13:15:27;95299.31;;;3.29;81.38
6218;BME280;3142;48.206;11.550;2024-01-07T13:17:53;95299.31;;;3.29;81.07
6218;BME280;3142;48.206;11.550;2024-01-07T13:20:20;95303.34;;;3.23;81.93